Station Historical Data
Daily Summary for November 30, 2017 Units:  English    Metric   Both
Next Day »
Daily Weekly Monthly Yearly Custom
  High: Low: Average:
Temperature: 56.5 °F 42.9 °F 47.9 °F
Dew Point: 45.9 °F 36.7 °F 40.8 °F
Humidity: 89% 56% 77%
Wind Speed: 12.0mph 0.0mph 1mph
Wind Gust: 15.0mph - -
Wind- - ESE
Pressure: 30.24 in 30.14 in -
Precipitation: 0.00 in    
Historical Graphs
 
 
Tabular Data for November 30, 2017
Time Temperature Dew Point Pressure Wind Wind Speed Wind Gust Humidity Rainfall Rate (Hourly) solar Conditions
00:09 43.4 °F 40.4 °F 30.23 in Calm     89% 0.00 in 0.00 W/m2
00:14 43.3 °F 40.3 °F 30.23 in Calm     89% 0.00 in 0.00 W/m2
00:19 43.2 °F 39.9 °F 30.23 in Calm     88% 0.00 in 0.00 W/m2
00:24 43.1 °F 39.8 °F 30.23 in Calm     88% 0.00 in 0.00 W/m2
00:27 43.1 °F 39.8 °F 30.24 in Calm     88% 0.00 in 0.00 W/m2
00:32 43.0 °F 39.4 °F 30.24 in Calm     87% 0.00 in 0.00 W/m2
00:37 43.0 °F 39.4 °F 30.23 in Calm     87% 0.00 in 0.00 W/m2
00:42 43.0 °F 39.4 °F 30.23 in Calm     87% 0.00 in 0.00 W/m2
00:47 42.9 °F 39.3 °F 30.23 in Calm     87% 0.00 in 0.00 W/m2
00:52 42.9 °F 39.3 °F 30.23 in Calm     87% 0.00 in 0.00 W/m2
00:57 42.9 °F 39.3 °F 30.23 in Calm     87% 0.00 in 0.00 W/m2
01:02 42.9 °F 39.3 °F 30.23 in Calm   5.0 mph 87% 0.00 in 0.00 W/m2
01:07 42.9 °F 39.3 °F 30.23 in Calm     87% 0.00 in 0.00 W/m2
01:12 42.9 °F 39.0 °F 30.23 in Calm   5.0 mph 86% 0.00 in 0.00 W/m2
01:17 42.9 °F 39.0 °F 30.23 in ESE 4.0 mph 6.0 mph 86% 0.00 in 0.00 W/m2
01:22 43.0 °F 39.1 °F 30.23 in Calm   6.0 mph 86% 0.00 in 0.00 W/m2
01:27 43.0 °F 39.1 °F 30.23 in ESE 4.0 mph 8.0 mph 86% 0.00 in 0.00 W/m2
01:32 43.0 °F 39.1 °F 30.23 in ESE 6.0 mph 8.0 mph 86% 0.00 in 0.00 W/m2
01:37 43.0 °F 39.1 °F 30.23 in ESE 2.0 mph 6.0 mph 86% 0.00 in 0.00 W/m2
01:42 43.0 °F 39.1 °F 30.23 in Calm   6.0 mph 86% 0.00 in 0.00 W/m2
01:47 43.1 °F 39.2 °F 30.23 in Calm   7.0 mph 86% 0.00 in 0.00 W/m2
01:52 43.1 °F 39.2 °F 30.23 in Calm   6.0 mph 86% 0.00 in 0.00 W/m2
02:02 43.1 °F 38.9 °F 30.23 in Calm   12.0 mph 85% 0.00 in 0.00 W/m2
02:07 43.1 °F 38.9 °F 30.23 in Calm   8.0 mph 85% 0.00 in 0.00 W/m2
02:19 43.2 °F 38.7 °F 30.23 in East 2.0 mph 11.0 mph 84% 0.00 in 0.00 W/m2
02:24 43.2 °F 38.7 °F 30.23 in ESE 6.0 mph 13.0 mph 84% 0.00 in 0.00 W/m2
02:34 43.4 °F 38.6 °F 30.23 in Calm   12.0 mph 83% 0.00 in 0.00 W/m2
02:39 43.4 °F 38.9 °F 30.23 in Calm   9.0 mph 84% 0.00 in 0.00 W/m2
02:54 43.5 °F 38.4 °F 30.23 in Calm   8.0 mph 82% 0.00 in 0.00 W/m2
02:59 43.5 °F 38.1 °F 30.23 in Calm   11.0 mph 81% 0.00 in 0.00 W/m2
03:04 43.5 °F 38.1 °F 30.23 in Calm   11.0 mph 81% 0.00 in 0.00 W/m2
03:09 43.6 °F 37.8 °F 30.22 in ESE 8.0 mph 9.0 mph 80% 0.00 in 0.00 W/m2
03:19 43.8 °F 38.0 °F 30.22 in ESE 1.0 mph 9.0 mph 80% 0.00 in 0.00 W/m2
03:24 43.9 °F 38.1 °F 30.22 in Calm   13.0 mph 80% 0.00 in 0.00 W/m2
03:34 44.0 °F 38.2 °F 30.22 in ESE 7.0 mph 13.0 mph 80% 0.00 in 0.00 W/m2
03:49 44.2 °F 38.1 °F 30.22 in East 5.0 mph 13.0 mph 79% 0.00 in 0.00 W/m2
03:54 44.1 °F 38.0 °F 30.22 in ESE 4.0 mph 12.0 mph 79% 0.00 in 0.00 W/m2
04:04 44.2 °F 38.1 °F 30.22 in Calm   9.0 mph 79% 0.00 in 0.00 W/m2
04:09 44.2 °F 38.1 °F 30.21 in Calm   9.0 mph 79% 0.00 in 0.00 W/m2
04:15 44.2 °F 37.8 °F 30.21 in East 7.0 mph 8.0 mph 78% 0.00 in 0.00 W/m2
04:20 44.2 °F 37.8 °F 30.21 in ESE 4.0 mph 12.0 mph 78% 0.00 in 0.00 W/m2
04:25 44.2 °F 37.8 °F 30.22 in Calm   12.0 mph 78% 0.00 in 0.00 W/m2
04:30 44.2 °F 38.1 °F 30.21 in Calm   6.0 mph 79% 0.00 in 0.00 W/m2
04:35 44.2 °F 38.1 °F 30.21 in Calm   9.0 mph 79% 0.00 in 0.00 W/m2
04:40 44.2 °F 38.1 °F 30.21 in Calm   9.0 mph 79% 0.00 in 0.00 W/m2
04:45 44.2 °F 38.1 °F 30.21 in Calm   8.0 mph 79% 0.00 in 0.00 W/m2
04:50 44.2 °F 38.1 °F 30.21 in Calm   9.0 mph 79% 0.00 in 0.00 W/m2
04:55 44.2 °F 38.1 °F 30.21 in Calm   9.0 mph 79% 0.00 in 0.00 W/m2
05:00 44.3 °F 38.2 °F 30.21 in Calm   11.0 mph 79% 0.00 in 0.00 W/m2
05:05 44.3 °F 38.2 °F 30.21 in Calm   8.0 mph 79% 0.00 in 0.00 W/m2
05:10 44.3 °F 37.9 °F 30.21 in Calm   12.0 mph 78% 0.00 in 0.00 W/m2
05:20 44.5 °F 38.1 °F 30.20 in Calm   12.0 mph 78% 0.00 in 0.00 W/m2
05:25 44.5 °F 38.1 °F 30.20 in Calm   13.0 mph 78% 0.00 in 0.00 W/m2
05:30 44.6 °F 37.8 °F 30.20 in East 2.0 mph 13.0 mph 77% 0.00 in 0.00 W/m2
05:40 44.7 °F 37.9 °F 30.20 in ESE 5.0 mph 13.0 mph 77% 0.00 in 0.00 W/m2
05:45 44.7 °F 37.9 °F 30.20 in East 1.0 mph 1.0 mph 77% 0.00 in 0.00 W/m2
05:50 44.7 °F 37.6 °F 30.20 in Calm   14.0 mph 76% 0.00 in 0.00 W/m2
06:00 44.8 °F 37.4 °F 30.20 in ESE 5.0 mph 11.0 mph 75% 0.00 in 0.00 W/m2
06:05 44.8 °F 37.4 °F 30.20 in East 1.0 mph 12.0 mph 75% 0.00 in 0.00 W/m2
06:15 44.9 °F 37.5 °F 30.21 in Calm   11.0 mph 75% 0.00 in 0.00 W/m2
06:20 44.9 °F 37.5 °F 30.21 in Calm   9.0 mph 75% 0.00 in 0.00 W/m2
06:25 44.9 °F 37.5 °F 30.21 in East 5.0 mph 5.0 mph 75% 0.00 in 0.00 W/m2
06:30 44.9 °F 37.8 °F 30.21 in East 4.0 mph 5.0 mph 76% 0.00 in 0.00 W/m2
06:35 44.9 °F 38.1 °F 30.21 in Calm   11.0 mph 77% 0.00 in 0.00 W/m2
06:40 44.8 °F 37.4 °F 30.21 in Calm   6.0 mph 75% 0.00 in 0.00 W/m2
06:45 44.8 °F 37.4 °F 30.21 in Calm   12.0 mph 75% 0.00 in 0.00 W/m2
06:50 44.8 °F 37.4 °F 30.21 in Calm   9.0 mph 75% 0.00 in 0.00 W/m2
06:55 44.8 °F 36.7 °F 30.21 in Calm   8.0 mph 73% 0.00 in 7.00 W/m2
07:10 44.8 °F 37.0 °F 30.21 in Calm     74% 0.00 in 12.00 W/m2
07:15 44.7 °F 37.9 °F 30.21 in Calm   6.0 mph 77% 0.00 in 16.00 W/m2
07:20 44.5 °F 37.4 °F 30.22 in Calm   7.0 mph 76% 0.00 in 23.00 W/m2
07:25 44.4 °F 37.7 °F 30.22 in Calm   9.0 mph 77% 0.00 in 33.00 W/m2
07:30 44.3 °F 37.2 °F 30.22 in Calm   11.0 mph 76% 0.00 in 42.00 W/m2
07:35 44.3 °F 37.6 °F 30.22 in East 6.0 mph 12.0 mph 77% 0.00 in 53.00 W/m2
07:37 44.4 °F 37.7 °F 30.22 in ESE 4.0 mph 7.0 mph 77% 0.00 in 53.00 W/m2
07:42 44.4 °F 37.3 °F 30.22 in East 1.0 mph 7.0 mph 76% 0.00 in 62.00 W/m2
07:47 44.5 °F 37.4 °F 30.23 in East 2.0 mph 7.0 mph 76% 0.00 in 54.00 W/m2
07:52 44.7 °F 37.3 °F 30.23 in East 2.0 mph 7.0 mph 75% 0.00 in 37.00 W/m2
08:02 45.0 °F 37.6 °F 30.23 in East 1.0 mph 6.0 mph 75% 0.00 in 65.00 W/m2
08:07 45.0 °F 37.9 °F 30.23 in East 4.0 mph 9.0 mph 76% 0.00 in 130.00 W/m2
08:12 45.1 °F 37.7 °F 30.23 in East 6.0 mph 6.0 mph 75% 0.00 in 120.00 W/m2
08:22 45.1 °F 37.7 °F 30.22 in ESE 9.0 mph 9.0 mph 75% 0.00 in 174.00 W/m2
08:27 45.2 °F 38.1 °F 30.22 in ESE 1.0 mph 12.0 mph 76% 0.00 in 190.00 W/m2
08:32 45.4 °F 38.0 °F 30.22 in ESE 12.0 mph 12.0 mph 75% 0.00 in 206.00 W/m2
08:37 45.6 °F 37.8 °F 30.22 in East 2.0 mph 11.0 mph 74% 0.00 in 232.00 W/m2
08:47 46.1 °F 37.9 °F 30.22 in East 9.0 mph 15.0 mph 73% 0.00 in 258.00 W/m2
08:59 46.8 °F 37.9 °F 30.22 in Calm   13.0 mph 71% 0.00 in 302.00 W/m2
09:04 47.0 °F 38.5 °F 30.22 in ESE 8.0 mph 12.0 mph 72% 0.00 in 313.00 W/m2
09:09 47.2 °F 38.3 °F 30.22 in ESE 7.0 mph 14.0 mph 71% 0.00 in 329.00 W/m2
09:14 47.5 °F 38.6 °F 30.22 in Calm   12.0 mph 71% 0.00 in 339.00 W/m2
09:24 48.0 °F 39.4 °F 30.22 in Calm   6.0 mph 72% 0.00 in 355.00 W/m2
09:29 48.2 °F 39.6 °F 30.22 in Calm   4.0 mph 72% 0.00 in 366.00 W/m2
09:34 48.4 °F 40.2 °F 30.23 in Calm   5.0 mph 73% 0.00 in 380.00 W/m2
09:39 48.7 °F 39.7 °F 30.23 in Calm   4.0 mph 71% 0.00 in 390.00 W/m2
09:44 49.0 °F 40.0 °F 30.23 in Calm   2.0 mph 71% 0.00 in 397.00 W/m2
09:49 49.2 °F 40.2 °F 30.23 in Calm     71% 0.00 in 408.00 W/m2
09:55 49.6 °F 40.2 °F 30.23 in Calm     70% 0.00 in 417.00 W/m2
10:00 50.0 °F 41.0 °F 30.23 in Calm   2.0 mph 71% 0.00 in 425.00 W/m2
10:05 50.1 °F 39.2 °F 30.23 in Calm   2.0 mph 66% 0.00 in 432.00 W/m2
10:10 50.2 °F 40.4 °F 30.23 in Calm   4.0 mph 69% 0.00 in 438.00 W/m2
10:20 50.3 °F 41.3 °F 30.23 in Calm     71% 0.00 in 455.00 W/m2
10:25 50.3 °F 42.0 °F 30.22 in Calm     73% 0.00 in 462.00 W/m2
10:30 50.4 °F 42.4 °F 30.22 in Calm     74% 0.00 in 469.00 W/m2
10:35 50.6 °F 42.3 °F 30.22 in Calm   2.0 mph 73% 0.00 in 478.00 W/m2
10:40 50.8 °F 41.8 °F 30.22 in Calm   2.0 mph 71% 0.00 in 483.00 W/m2
10:45 51.1 °F 41.7 °F 30.22 in Calm   1.0 mph 70% 0.00 in 487.00 W/m2
10:50 51.5 °F 41.3 °F 30.22 in Calm     68% 0.00 in 492.00 W/m2
11:10 53.1 °F 42.5 °F 30.21 in Calm   2.0 mph 67% 0.00 in 510.00 W/m2
11:15 53.4 °F 43.1 °F 30.21 in Calm   4.0 mph 68% 0.00 in 510.00 W/m2
11:20 53.9 °F 42.8 °F 30.21 in ESE 2.0 mph 2.0 mph 66% 0.00 in 512.00 W/m2
11:30 54.6 °F 41.9 °F 30.21 in NW 2.0 mph 6.0 mph 62% 0.00 in 515.00 W/m2
11:35 54.6 °F 41.4 °F 30.21 in Calm   4.0 mph 61% 0.00 in 508.00 W/m2
11:50 54.4 °F 40.4 °F 30.20 in Calm   3.0 mph 59% 0.00 in 517.00 W/m2
11:55 54.4 °F 41.7 °F 30.20 in NW 4.0 mph 5.0 mph 62% 0.00 in 512.00 W/m2
12:00 54.3 °F 40.3 °F 30.20 in Calm   2.0 mph 59% 0.00 in 475.00 W/m2
12:05 54.3 °F 40.3 °F 30.20 in Calm   3.0 mph 59% 0.00 in 522.00 W/m2
12:10 54.2 °F 40.6 °F 30.19 in Calm     60% 0.00 in 457.00 W/m2
12:15 54.2 °F 41.1 °F 30.19 in Calm     61% 0.00 in 524.00 W/m2
12:20 54.3 °F 40.3 °F 30.19 in Calm     59% 0.00 in 519.00 W/m2
12:25 54.4 °F 41.7 °F 30.19 in Calm     62% 0.00 in 515.00 W/m2
12:30 54.5 °F 40.0 °F 30.18 in Calm     58% 0.00 in 501.00 W/m2
12:35 54.6 °F 40.6 °F 30.18 in Calm     59% 0.00 in 506.00 W/m2
12:40 54.7 °F 40.2 °F 30.18 in Calm     58% 0.00 in 522.00 W/m2
12:45 54.8 °F 41.2 °F 30.18 in Calm     60% 0.00 in 515.00 W/m2
12:50 55.0 °F 41.8 °F 30.17 in Calm   3.0 mph 61% 0.00 in 510.00 W/m2
12:55 55.2 °F 42.4 °F 30.18 in Calm   2.0 mph 62% 0.00 in 492.00 W/m2
13:00 55.5 °F 43.1 °F 30.17 in Calm     63% 0.00 in 403.00 W/m2
13:10 56.3 °F 40.8 °F 30.17 in Calm   4.0 mph 56% 0.00 in 322.00 W/m2
13:15 56.4 °F 41.8 °F 30.17 in Calm   1.0 mph 58% 0.00 in 461.00 W/m2
13:30 56.4 °F 42.7 °F 30.17 in Calm     60% 0.00 in 315.00 W/m2
13:35 56.5 °F 42.4 °F 30.17 in Calm     59% 0.00 in 253.00 W/m2
13:40 56.5 °F 43.2 °F 30.16 in Calm     61% 0.00 in 329.00 W/m2
13:45 56.5 °F 43.7 °F 30.16 in Calm     62% 0.00 in 258.00 W/m2
13:50 56.4 °F 44.0 °F 30.16 in Calm     63% 0.00 in 232.00 W/m2
13:55 56.4 °F 43.6 °F 30.16 in Calm     62% 0.00 in 264.00 W/m2
14:00 56.3 °F 43.0 °F 30.16 in Calm     61% 0.00 in 272.00 W/m2
14:10 56.1 °F 43.3 °F 30.16 in Calm     62% 0.00 in 313.00 W/m2
14:15 56.1 °F 43.7 °F 30.16 in Calm     63% 0.00 in 336.00 W/m2
14:23 56.0 °F 42.8 °F 30.16 in Calm     61% 0.00 in 362.00 W/m2
14:28 56.0 °F 43.2 °F 30.15 in Calm     62% 0.00 in 334.00 W/m2
14:33 55.9 °F 42.7 °F 30.16 in Calm     61% 0.00 in 299.00 W/m2
14:43 55.8 °F 43.4 °F 30.15 in Calm     63% 0.00 in 232.00 W/m2
14:53 55.5 °F 43.9 °F 30.15 in Calm   1.0 mph 65% 0.00 in 229.00 W/m2
15:03 55.2 °F 44.5 °F 30.16 in NW 1.0 mph 2.0 mph 67% 0.00 in 225.00 W/m2
15:13 55.1 °F 44.7 °F 30.16 in Calm   3.0 mph 68% 0.00 in 135.00 W/m2
15:18 55.1 °F 44.3 °F 30.15 in Calm     67% 0.00 in 139.00 W/m2
15:24 55.0 °F 45.0 °F 30.15 in Calm     69% 0.00 in 183.00 W/m2
15:29 54.9 °F 44.9 °F 30.15 in Calm     69% 0.00 in 76.00 W/m2
15:34 54.8 °F 44.8 °F 30.15 in Calm     69% 0.00 in 65.00 W/m2
15:39 54.6 °F 45.0 °F 30.15 in Calm     70% 0.00 in 60.00 W/m2
15:44 54.5 °F 45.3 °F 30.15 in Calm     71% 0.00 in 47.00 W/m2
15:54 54.1 °F 45.7 °F 30.15 in Calm     73% 0.00 in 39.00 W/m2
15:59 53.7 °F 45.6 °F 30.15 in Calm     74% 0.00 in 32.00 W/m2
16:04 53.5 °F 45.4 °F 30.14 in Calm     74% 0.00 in 25.00 W/m2
16:09 53.3 °F 45.6 °F 30.14 in Calm     75% 0.00 in 19.00 W/m2
16:14 53.2 °F 45.5 °F 30.14 in Calm     75% 0.00 in 21.00 W/m2
16:19 53.1 °F 45.4 °F 30.14 in Calm     75% 0.00 in 16.00 W/m2
16:24 52.9 °F 45.5 °F 30.14 in Calm     76% 0.00 in 12.00 W/m2
16:49 51.5 °F 45.9 °F 30.15 in NW 3.0 mph 5.0 mph 81% 0.00 in 5.00 W/m2
16:54 51.2 °F 45.9 °F 30.15 in Calm   4.0 mph 82% 0.00 in 0.00 W/m2
16:59 51.0 °F 45.7 °F 30.14 in Calm     82% 0.00 in 0.00 W/m2
17:04 50.7 °F 45.7 °F 30.15 in Calm     83% 0.00 in 0.00 W/m2
17:09 50.5 °F 45.5 °F 30.15 in Calm     83% 0.00 in 0.00 W/m2
17:14 50.3 °F 45.7 °F 30.15 in Calm     84% 0.00 in 0.00 W/m2
17:25 49.7 °F 45.4 °F 30.15 in Calm     85% 0.00 in 0.00 W/m2
17:30 49.3 °F 45.0 °F 30.15 in Calm     85% 0.00 in 0.00 W/m2
17:35 49.1 °F 44.8 °F 30.15 in Calm     85% 0.00 in 0.00 W/m2
17:40 48.8 °F 44.8 °F 30.15 in Calm     86% 0.00 in 0.00 W/m2
17:45 48.7 °F 44.7 °F 30.15 in Calm     86% 0.00 in 0.00 W/m2
17:55 48.5 °F 44.8 °F 30.15 in Calm     87% 0.00 in 0.00 W/m2
18:07 48.4 °F 44.7 °F 30.15 in Calm     87% 0.00 in 0.00 W/m2
18:12 48.3 °F 44.6 °F 30.15 in Calm     87% 0.00 in 0.00 W/m2
18:27 48.2 °F 44.5 °F 30.15 in Calm     87% 0.00 in 0.00 W/m2
18:32 48.1 °F 44.4 °F 30.15 in Calm     87% 0.00 in 0.00 W/m2
18:37 48.1 °F 44.4 °F 30.15 in Calm     87% 0.00 in 0.00 W/m2
18:52 48.0 °F 44.0 °F 30.15 in Calm   3.0 mph 86% 0.00 in 0.00 W/m2
19:02 48.0 °F 44.0 °F 30.14 in Calm   5.0 mph 86% 0.00 in 0.00 W/m2
19:13 47.9 °F 44.2 °F 30.14 in East 2.0 mph 6.0 mph 87% 0.00 in 0.00 W/m2
19:19 47.9 °F 43.9 °F 30.15 in Calm   4.0 mph 86% 0.00 in 0.00 W/m2
19:24 47.7 °F 43.7 °F 30.15 in Calm     86% 0.00 in 0.00 W/m2
19:25 47.6 °F 43.6 °F 30.15 in Calm     86% 0.00 in 0.00 W/m2
19:27 47.6 °F 43.6 °F 30.15 in Calm     86% 0.00 in 0.00 W/m2
19:30 47.5 °F 43.5 °F 30.15 in Calm     86% 0.00 in 0.00 W/m2
19:35 47.4 °F 43.4 °F 30.15 in Calm     86% 0.00 in 0.00 W/m2
19:36 47.4 °F 43.4 °F 30.15 in Calm     86% 0.00 in 0.00 W/m2
19:40 47.2 °F 42.9 °F 30.15 in Calm     85% 0.00 in 0.00 W/m2
19:45 47.1 °F 42.8 °F 30.15 in Calm     85% 0.00 in 0.00 W/m2
19:50 47.0 °F 42.7 °F 30.16 in Calm     85% 0.00 in 0.00 W/m2
19:55 46.9 °F 42.6 °F 30.15 in Calm     85% 0.00 in 0.00 W/m2
20:00 46.9 °F 42.6 °F 30.15 in Calm     85% 0.00 in 0.00 W/m2
20:05 46.8 °F 42.5 °F 30.15 in Calm     85% 0.00 in 0.00 W/m2
20:11 46.8 °F 42.8 °F 30.15 in Calm     86% 0.00 in 0.00 W/m2
20:26 46.9 °F 42.9 °F 30.16 in Calm     86% 0.00 in 0.00 W/m2
20:31 46.9 °F 43.2 °F 30.16 in Calm     87% 0.00 in 0.00 W/m2
20:36 47.0 °F 43.3 °F 30.16 in Calm     87% 0.00 in 0.00 W/m2
20:41 47.0 °F 43.3 °F 30.17 in Calm     87% 0.00 in 0.00 W/m2
20:46 47.0 °F 43.3 °F 30.17 in Calm     87% 0.00 in 0.00 W/m2
20:51 47.0 °F 43.3 °F 30.17 in Calm     87% 0.00 in 0.00 W/m2
20:56 46.9 °F 43.2 °F 30.17 in Calm     87% 0.00 in 0.00 W/m2
21:01 46.8 °F 43.1 °F 30.17 in Calm     87% 0.00 in 0.00 W/m2
21:06 46.7 °F 43.0 °F 30.17 in Calm     87% 0.00 in 0.00 W/m2
21:11 46.7 °F 43.0 °F 30.17 in Calm     87% 0.00 in 0.00 W/m2
21:16 46.6 °F 42.9 °F 30.17 in Calm   2.0 mph 87% 0.00 in 0.00 W/m2
21:21 46.5 °F 42.8 °F 30.17 in Calm     87% 0.00 in 0.00 W/m2
21:26 46.4 °F 42.8 °F 30.16 in Calm     87% 0.00 in 0.00 W/m2
21:31 46.3 °F 42.3 °F 30.16 in Calm   6.0 mph 86% 0.00 in 0.00 W/m2
21:36 46.2 °F 42.0 °F 30.15 in ESE 8.0 mph 8.0 mph 85% 0.00 in 0.00 W/m2
21:41 46.1 °F 41.2 °F 30.16 in East 1.0 mph 9.0 mph 83% 0.00 in 0.00 W/m2
21:46 46.1 °F 41.2 °F 30.16 in East 6.0 mph 11.0 mph 83% 0.00 in 0.00 W/m2
21:51 46.2 °F 41.3 °F 30.16 in East 2.0 mph 6.0 mph 83% 0.00 in 0.00 W/m2
21:56 46.2 °F 41.0 °F 30.16 in East 4.0 mph 8.0 mph 82% 0.00 in 0.00 W/m2
22:01 46.3 °F 41.1 °F 30.16 in East 6.0 mph 6.0 mph 82% 0.00 in 0.00 W/m2
22:16 46.1 °F 40.3 °F 30.16 in East 1.0 mph 6.0 mph 80% 0.00 in 0.00 W/m2
22:21 46.1 °F 40.3 °F 30.16 in East 2.0 mph 4.0 mph 80% 0.00 in 0.00 W/m2
22:31 46.1 °F 40.0 °F 30.16 in East 1.0 mph 4.0 mph 79% 0.00 in 0.00 W/m2
22:33 46.1 °F 40.0 °F 30.16 in East 1.0 mph 5.0 mph 79% 0.00 in 0.00 W/m2
22:38 46.0 °F 39.9 °F 30.16 in East 4.0 mph 6.0 mph 79% 0.00 in 0.00 W/m2
22:48 46.0 °F 39.5 °F 30.16 in Calm   7.0 mph 78% 0.00 in 0.00 W/m2
22:53 46.0 °F 39.5 °F 30.16 in Calm   7.0 mph 78% 0.00 in 0.00 W/m2
22:58 45.9 °F 39.1 °F 30.16 in East 1.0 mph 9.0 mph 77% 0.00 in 0.00 W/m2
23:03 45.9 °F 38.8 °F 30.16 in East 4.0 mph 8.0 mph 76% 0.00 in 0.00 W/m2
23:08 45.9 °F 38.4 °F 30.16 in Calm   7.0 mph 75% 0.00 in 0.00 W/m2
23:13 46.0 °F 38.5 °F 30.16 in East 2.0 mph 6.0 mph 75% 0.00 in 0.00 W/m2
23:23 45.9 °F 39.1 °F 30.17 in Calm     77% 0.00 in 0.00 W/m2
23:28 45.8 °F 38.3 °F 30.17 in Calm   5.0 mph 75% 0.00 in 0.00 W/m2
23:33 45.7 °F 38.9 °F 30.17 in East 2.0 mph 7.0 mph 77% 0.00 in 0.00 W/m2
23:38 45.5 °F 38.4 °F 30.17 in East 5.0 mph 10.0 mph 76% 0.00 in 0.00 W/m2
23:48 45.5 °F 38.0 °F 30.17 in Calm     75% 0.00 in 0.00 W/m2
23:53 45.6 °F 38.5 °F 30.16 in Calm     76% 0.00 in 0.00 W/m2
23:58 45.7 °F 38.2 °F 30.16 in Calm     75% 0.00 in 0.00 W/m2
Foresthill Weather
 WU-history PHP script courtesy of   Juneau County Weather.
powered by Cumulus v1.9.3 (1059)
Ambient Weather VWS v14.00
Top Contact Website Map Copyright © 2007 - 2018 Foresthillweather.com Never base important decisions on this or any weather information obtained from the Internet